createdAt,value
2022-11-27T00:00:21.986Z,93.30
2022-11-27T00:04:08.610Z,93.30
2022-11-27T00:07:50.849Z,93.30
2022-11-27T00:11:33.599Z,93.30
2022-11-27T00:15:17.333Z,93.40
2022-11-27T00:19:00.044Z,93.30
2022-11-27T00:22:42.146Z,93.40
2022-11-27T00:26:26.642Z,93.40
2022-11-27T00:30:09.152Z,93.40
2022-11-27T00:33:55.250Z,93.40
2022-11-27T00:37:38.495Z,93.40
2022-11-27T00:41:23.180Z,93.40
2022-11-27T00:45:05.556Z,93.40
2022-11-27T00:48:47.767Z,93.40
2022-11-27T00:52:29.848Z,93.40
2022-11-27T00:56:18.736Z,93.40
2022-11-27T01:00:00.986Z,93.50
2022-11-27T01:03:43.446Z,93.50
2022-11-27T01:07:27.264Z,93.50
2022-11-27T01:11:15.607Z,93.50
2022-11-27T01:14:57.893Z,93.50
2022-11-27T01:18:42.109Z,93.50
2022-11-27T01:22:24.218Z,93.50
2022-11-27T01:26:08.332Z,93.50
2022-11-27T01:29:50.394Z,93.50
2022-11-27T01:33:32.701Z,93.50
2022-11-27T01:37:14.945Z,93.50
2022-11-27T01:40:59.471Z,93.50
2022-11-27T01:44:52.328Z,93.50
2022-11-27T01:48:34.464Z,93.60
2022-11-27T01:52:27.287Z,93.50
2022-11-27T01:56:12.390Z,93.60
2022-11-27T01:59:56.592Z,93.50
2022-11-27T02:03:38.685Z,93.50
2022-11-27T02:07:21.278Z,93.50
2022-11-27T02:11:18.353Z,93.50
2022-11-27T02:15:26.875Z,93.70
2022-11-27T02:19:34.661Z,93.80
2022-11-27T02:23:29.776Z,93.90
2022-11-27T02:27:43.786Z,93.70
2022-11-27T02:31:28.693Z,93.80
2022-11-27T02:35:19.901Z,93.50
2022-11-27T02:39:16.876Z,93.50
2022-11-27T02:43:12.383Z,93.60
2022-11-27T02:46:55.231Z,93.70
2022-11-27T02:50:40.420Z,93.50
2022-11-27T02:54:27.244Z,93.50
2022-11-27T02:58:16.117Z,93.60
2022-11-27T03:02:04.390Z,93.60
2022-11-27T03:05:50.860Z,93.50
2022-11-27T03:09:37.933Z,93.50
2022-11-27T03:13:21.941Z,93.50
2022-11-27T03:17:18.888Z,93.50
2022-11-27T03:21:09.854Z,93.70
2022-11-27T03:24:51.986Z,93.60
2022-11-27T03:28:34.639Z,93.50
2022-11-27T03:32:17.954Z,93.50
2022-11-27T03:36:00.766Z,93.50
2022-11-27T03:39:43.416Z,93.50
2022-11-27T03:43:32.014Z,93.60
2022-11-27T03:47:29.266Z,93.60
2022-11-27T03:51:28.747Z,93.70
2022-11-27T03:55:27.484Z,93.80
2022-11-27T03:59:38.948Z,93.50
2022-11-27T04:03:29.167Z,93.50
2022-11-27T04:07:20.536Z,93.60
2022-11-27T04:11:02.745Z,93.60
2022-11-27T04:14:44.671Z,93.50
2022-11-27T04:18:26.761Z,93.50
2022-11-27T04:22:08.804Z,93.50
2022-11-27T04:25:51.022Z,93.50
2022-11-27T04:29:33.430Z,93.50
2022-11-27T04:33:15.531Z,93.50
2022-11-27T04:36:57.614Z,93.50
2022-11-27T04:40:39.628Z,93.60
2022-11-27T04:44:23.055Z,93.60
2022-11-27T04:48:06.073Z,93.60
2022-11-27T04:51:48.200Z,93.60
2022-11-27T04:55:31.380Z,93.50
2022-11-27T04:59:13.330Z,93.40
2022-11-27T05:02:55.290Z,93.30
2022-11-27T05:06:37.271Z,93.30
2022-11-27T05:10:19.542Z,93.10
2022-11-27T05:14:20.608Z,93.20
2022-11-27T05:18:04.000Z,93.10
2022-11-27T05:21:47.498Z,93.00
2022-11-27T05:25:29.700Z,92.90
2022-11-27T05:29:12.962Z,92.90
2022-11-27T05:32:55.027Z,92.90
2022-11-27T05:36:37.933Z,92.90
2022-11-27T05:40:19.919Z,92.80
2022-11-27T05:44:01.947Z,92.90
2022-11-27T05:47:44.022Z,92.90
2022-11-27T05:51:25.967Z,92.90
2022-11-27T05:55:08.423Z,92.80
2022-11-27T05:58:51.722Z,92.80
2022-11-27T06:02:33.904Z,92.80
2022-11-27T06:06:18.801Z,92.80
2022-11-27T06:10:01.029Z,92.70
2022-11-27T06:13:43.213Z,92.80
2022-11-27T06:17:25.238Z,92.80
2022-11-27T06:21:12.790Z,92.80
2022-11-27T06:24:55.067Z,92.90
2022-11-27T06:28:37.190Z,92.90
2022-11-27T06:32:19.279Z,92.80
2022-11-27T06:36:02.369Z,92.90
2022-11-27T06:39:44.824Z,92.90
2022-11-27T06:43:26.937Z,92.90
2022-11-27T06:47:09.106Z,92.90
2022-11-27T06:50:51.500Z,92.90
2022-11-27T06:54:33.609Z,92.90
2022-11-27T06:58:15.611Z,92.90
2022-11-27T07:01:57.647Z,92.90
2022-11-27T07:05:39.679Z,92.90
2022-11-27T07:09:21.607Z,92.80
2022-11-27T07:13:03.693Z,92.80
2022-11-27T07:16:45.758Z,92.70
2022-11-27T07:20:29.392Z,92.70
2022-11-27T07:24:11.307Z,92.70
2022-11-27T07:27:53.294Z,92.70
2022-11-27T07:31:35.627Z,92.70
2022-11-27T07:35:17.907Z,92.70
2022-11-27T07:39:01.119Z,92.70
2022-11-27T07:42:43.163Z,92.70
2022-11-27T07:46:25.839Z,92.70
2022-11-27T07:50:09.132Z,92.60
2022-11-27T07:53:52.274Z,92.60
2022-11-27T07:57:34.209Z,92.60
2022-11-27T08:01:18.507Z,92.60
2022-11-27T08:05:01.795Z,92.50
2022-11-27T08:08:44.187Z,92.60
2022-11-27T08:12:26.583Z,92.60
2022-11-27T08:16:09.071Z,92.60
2022-11-27T08:19:51.067Z,92.70
2022-11-27T08:23:34.586Z,92.70
2022-11-27T08:27:16.829Z,92.70
2022-11-27T08:30:59.754Z,92.70
2022-11-27T08:34:42.159Z,92.70
2022-11-27T08:38:24.810Z,92.70
2022-11-27T08:42:06.765Z,92.70
2022-11-27T08:45:49.086Z,92.80
2022-11-27T08:49:31.167Z,92.70
2022-11-27T08:53:13.367Z,92.70
2022-11-27T08:56:55.401Z,92.70
2022-11-27T09:00:38.449Z,92.70
2022-11-27T09:04:20.834Z,92.80
2022-11-27T09:08:05.639Z,92.90
2022-11-27T09:11:48.556Z,92.90
2022-11-27T09:15:30.665Z,93.00
2022-11-27T09:19:12.585Z,93.00
2022-11-27T09:22:59.401Z,93.00
2022-11-27T09:26:41.598Z,93.00
2022-11-27T09:30:23.770Z,92.90
2022-11-27T09:34:06.349Z,92.90
2022-11-27T09:37:48.363Z,92.80
2022-11-27T09:41:39.932Z,92.80
2022-11-27T09:45:27.298Z,92.90
2022-11-27T09:49:16.608Z,92.90
2022-11-27T09:53:19.546Z,92.90
2022-11-27T09:57:03.511Z,93.00
2022-11-27T10:00:46.794Z,93.10
2022-11-27T10:05:05.628Z,93.10
2022-11-27T10:09:00.936Z,93.20
2022-11-27T10:13:00.182Z,93.00
2022-11-27T10:16:59.097Z,92.90
2022-11-27T10:25:21.541Z,92.80
2022-11-27T10:29:31.206Z,92.60
2022-11-27T10:37:45.014Z,92.10
2022-11-27T10:42:09.029Z,91.70
2022-11-27T10:46:23.068Z,91.60
2022-11-27T10:50:14.342Z,91.60
2022-11-27T10:54:02.285Z,91.60
2022-11-27T10:57:49.679Z,91.80
2022-11-27T11:01:45.040Z,91.70
2022-11-27T11:05:41.412Z,91.60
2022-11-27T11:13:40.485Z,92.00
2022-11-27T11:17:54.933Z,92.00
2022-11-27T11:21:50.609Z,91.50
2022-11-27T11:25:33.067Z,91.90
2022-11-27T11:34:31.442Z,91.40
2022-11-27T11:42:26.933Z,91.70
2022-11-27T11:46:45.309Z,91.20
2022-11-27T11:51:24.962Z,91.00
2022-11-27T12:05:15.671Z,90.90
2022-11-27T12:09:23.682Z,90.70
2022-11-27T12:13:46.730Z,91.00
2022-11-27T12:17:37.578Z,90.60
2022-11-27T12:22:01.799Z,90.70
2022-11-27T12:25:57.879Z,90.10
2022-11-27T12:30:20.943Z,90.20
2022-11-27T12:34:21.057Z,90.00
2022-11-27T12:38:45.115Z,90.70
2022-11-27T12:43:04.744Z,89.90
2022-11-27T12:46:53.695Z,90.30
2022-11-27T12:55:37.230Z,89.90
2022-11-27T12:59:54.477Z,90.30
2022-11-27T13:03:55.596Z,90.20
2022-11-27T13:08:13.207Z,90.10
2022-11-27T13:12:05.439Z,89.80
2022-11-27T13:24:29.634Z,89.80
2022-11-27T13:28:36.786Z,90.70
2022-11-27T13:32:29.303Z,90.20
2022-11-27T13:36:39.148Z,90.50
2022-11-27T13:40:31.847Z,89.90
2022-11-27T13:44:29.428Z,90.60
2022-11-27T13:48:33.062Z,89.90
2022-11-27T13:52:18.217Z,89.80
2022-11-27T13:56:03.471Z,90.50
2022-11-27T14:00:02.788Z,90.40
2022-11-27T14:03:48.488Z,89.70
2022-11-27T14:12:15.599Z,89.80
2022-11-27T14:20:46.653Z,90.20
2022-11-27T14:29:14.186Z,90.30
2022-11-27T14:33:31.008Z,90.30
2022-11-27T14:38:22.329Z,89.80
2022-11-27T14:42:37.901Z,89.80
2022-11-27T14:46:26.648Z,90.40
2022-11-27T14:50:15.135Z,90.50
2022-11-27T14:54:02.775Z,90.40
2022-11-27T14:57:50.038Z,90.40
2022-11-27T15:01:37.532Z,90.50
2022-11-27T15:05:42.319Z,90.60
2022-11-27T15:09:38.952Z,90.30
2022-11-27T15:18:05.041Z,90.60
2022-11-27T15:22:05.241Z,90.20
2022-11-27T15:26:52.998Z,90.60
2022-11-27T15:30:46.618Z,90.20
2022-11-27T15:34:36.145Z,90.40
2022-11-27T15:38:21.188Z,90.50
2022-11-27T15:42:11.144Z,90.60
2022-11-27T15:52:08.177Z,90.60
2022-11-27T16:00:40.875Z,90.80
2022-11-27T16:04:23.101Z,90.90
2022-11-27T16:08:06.135Z,90.90
2022-11-27T16:11:48.180Z,90.90
2022-11-27T16:15:32.921Z,90.90
2022-11-27T16:19:16.849Z,91.00
2022-11-27T16:22:58.870Z,91.00
2022-11-27T16:26:41.485Z,91.00
2022-11-27T16:30:23.586Z,90.90
2022-11-27T16:34:06.844Z,90.90
2022-11-27T16:37:48.867Z,90.90
2022-11-27T16:41:31.849Z,90.90
2022-11-27T16:45:13.991Z,90.90
2022-11-27T16:48:57.739Z,90.90
2022-11-27T16:52:39.960Z,91.00
2022-11-27T16:56:24.426Z,90.90
2022-11-27T17:00:07.241Z,90.90
2022-11-27T17:03:50.873Z,90.90
2022-11-27T17:07:34.091Z,90.90
2022-11-27T17:11:21.621Z,90.80
2022-11-27T17:15:04.477Z,90.80
2022-11-27T17:18:46.927Z,90.80
2022-11-27T17:22:30.665Z,90.90
2022-11-27T17:26:19.590Z,90.90
2022-11-27T17:30:01.788Z,91.00
2022-11-27T17:33:46.901Z,91.00
2022-11-27T17:37:28.959Z,91.00
2022-11-27T17:41:14.159Z,91.00
2022-11-27T17:44:56.517Z,91.00
2022-11-27T17:48:38.913Z,91.00
2022-11-27T17:52:20.952Z,91.10
2022-11-27T17:56:09.497Z,91.10
2022-11-27T17:59:51.633Z,91.10
2022-11-27T18:03:34.138Z,91.00
2022-11-27T18:07:17.815Z,91.00
2022-11-27T18:11:06.408Z,90.90
2022-11-27T18:14:54.357Z,90.80
2022-11-27T18:18:40.833Z,90.70
2022-11-27T18:22:23.355Z,90.70
2022-11-27T18:26:09.431Z,90.60
2022-11-27T18:29:51.427Z,90.60
2022-11-27T18:33:33.668Z,90.70
2022-11-27T18:37:17.136Z,90.70
2022-11-27T18:41:15.831Z,90.80
2022-11-27T18:44:57.845Z,90.70
2022-11-27T18:48:40.630Z,90.80
2022-11-27T18:52:23.128Z,90.90
2022-11-27T18:56:17.023Z,90.90
2022-11-27T18:59:59.123Z,90.90
2022-11-27T19:03:42.979Z,91.00
2022-11-27T19:07:28.018Z,91.00
2022-11-27T19:11:13.502Z,91.00
2022-11-27T19:14:55.681Z,91.00
2022-11-27T19:18:37.812Z,91.00
2022-11-27T19:22:20.854Z,90.90
2022-11-27T19:26:11.901Z,90.90
2022-11-27T19:29:54.365Z,90.80
2022-11-27T19:33:37.660Z,90.80
2022-11-27T19:37:33.470Z,90.80
2022-11-27T19:41:21.459Z,90.90
2022-11-27T19:45:06.421Z,90.90
2022-11-27T19:48:49.726Z,91.00
2022-11-27T19:52:32.469Z,91.00
2022-11-27T19:56:14.547Z,91.00
2022-11-27T19:59:56.701Z,90.90
2022-11-27T20:03:39.207Z,90.80
2022-11-27T20:07:21.544Z,90.70
2022-11-27T20:11:06.584Z,90.70
2022-11-27T20:14:48.517Z,90.70
2022-11-27T20:18:30.432Z,90.80
2022-11-27T20:22:12.586Z,90.80
2022-11-27T20:25:54.595Z,90.90
2022-11-27T20:29:36.866Z,90.90
2022-11-27T20:33:19.833Z,90.80
2022-11-27T20:37:01.840Z,90.80
2022-11-27T20:40:45.019Z,90.80
2022-11-27T20:44:28.218Z,90.80
2022-11-27T20:48:10.939Z,90.80
2022-11-27T20:51:53.698Z,90.80
2022-11-27T20:55:35.767Z,90.80
2022-11-27T20:59:19.506Z,90.80
2022-11-27T21:03:01.497Z,90.80
2022-11-27T21:06:44.378Z,90.60
2022-11-27T21:10:26.761Z,90.60
2022-11-27T21:14:10.189Z,90.60
2022-11-27T21:17:52.261Z,90.60
2022-11-27T21:21:34.914Z,90.70
2022-11-27T21:25:20.392Z,90.80
2022-11-27T21:29:04.851Z,90.70
2022-11-27T21:32:46.882Z,90.70
2022-11-27T21:36:31.443Z,90.70
2022-11-27T21:40:14.662Z,90.80
2022-11-27T21:43:58.831Z,90.90
2022-11-27T21:47:40.832Z,90.90
2022-11-27T21:51:23.353Z,90.90
2022-11-27T21:55:11.649Z,90.80
2022-11-27T21:58:54.989Z,90.80
2022-11-27T22:02:37.195Z,90.70
2022-11-27T22:06:19.312Z,90.70
2022-11-27T22:10:01.603Z,90.70
2022-11-27T22:13:43.658Z,90.70
2022-11-27T22:17:26.272Z,90.80
2022-11-27T22:21:10.399Z,90.90
2022-11-27T22:24:52.406Z,90.90
2022-11-27T22:28:35.989Z,90.80
2022-11-27T22:32:18.164Z,90.80
2022-11-27T22:36:20.470Z,90.70
2022-11-27T22:40:02.469Z,90.80
2022-11-27T22:43:45.310Z,90.80
2022-11-27T22:47:27.521Z,90.80
2022-11-27T22:51:10.385Z,90.80
2022-11-27T22:54:52.663Z,90.90
2022-11-27T22:58:39.840Z,90.90
2022-11-27T23:02:24.382Z,90.80
2022-11-27T23:06:12.026Z,90.80
2022-11-27T23:09:54.406Z,90.80
2022-11-27T23:13:37.215Z,90.70
2022-11-27T23:17:20.362Z,90.70
2022-11-27T23:21:10.660Z,90.60
2022-11-27T23:24:54.102Z,90.50
2022-11-27T23:28:36.809Z,90.50
2022-11-27T23:32:18.913Z,90.50
2022-11-27T23:36:01.930Z,90.50
2022-11-27T23:39:43.902Z,90.40
2022-11-27T23:43:25.846Z,90.40
2022-11-27T23:47:08.097Z,90.40
2022-11-27T23:50:50.087Z,90.30
2022-11-27T23:54:32.031Z,90.30
2022-11-27T23:58:14.666Z,90.30
